Time;durP1;ratioP1;P1;durP2;ratioP2;P2;SDS_P1;SDS_P2;PMS_P1;PMS_P2;Temp;Humidity;BMP_temperature;BMP_pressure;BME280_temperature;BME280_humidity;BME280_pressure;Samples;Min_cycle;Max_cycle;Signal;HPM_P1;HPM_P2
2023/01/30 00:01:11;;;;;;;28.88;17.00;;;1.40;99.90;;;;;;5055491;28;20056;-88
2023/01/30 00:03:37;;;;;;;34.50;17.42;;;1.40;99.90;;;;;;5066821;28;20382;-89
2023/01/30 00:06:03;;;;;;;37.25;17.77;;;1.40;99.90;;;;;;5064407;28;20017;-89
2023/01/30 00:08:28;;;;;;;37.97;19.23;;;1.40;99.90;;;;;;5066884;28;20615;-88
2023/01/30 00:10:54;;;;;;;25.73;16.35;;;1.40;99.90;;;;;;5056957;28;20401;-88
2023/01/30 00:13:19;;;;;;;31.10;18.17;;;1.40;99.90;;;;;;5058714;28;20029;-88
2023/01/30 00:15:47;;;;;;;31.60;17.52;;;1.50;99.90;;;;;;5067413;28;20508;-87
2023/01/30 00:18:12;;;;;;;31.27;18.20;;;1.50;99.90;;;;;;5066240;28;20120;-89
2023/01/30 00:20:38;;;;;;;31.42;17.65;;;1.50;99.90;;;;;;5057328;28;20120;-88
2023/01/30 00:23:04;;;;;;;31.95;18.05;;;1.50;99.90;;;;;;5070643;28;20024;-88
2023/01/30 00:25:30;;;;;;;37.28;19.40;;;1.50;99.90;;;;;;5059586;28;20025;-88
2023/01/30 00:27:58;;;;;;;33.03;19.45;;;1.40;99.90;;;;;;5065154;28;20042;-88
2023/01/30 00:30:24;;;;;;;29.25;16.30;;;1.40;99.90;;;;;;5056419;28;20039;-88
2023/01/30 00:32:54;;;;;;;32.15;18.13;;;1.40;99.90;;;;;;5075748;28;20404;-88
2023/01/30 00:35:19;;;;;;;32.05;17.98;;;1.40;99.90;;;;;;5064437;28;20120;-88
2023/01/30 00:37:45;;;;;;;34.17;17.98;;;1.40;99.90;;;;;;5055714;28;20119;-88
2023/01/30 00:40:11;;;;;;;32.65;17.58;;;1.40;99.90;;;;;;5057453;28;20078;-88
2023/01/30 00:48:06;;;;;;;32.17;18.27;;;1.40;99.90;;;;;;5069758;28;20500;-88
2023/01/30 00:50:41;;;;;;;34.95;18.23;;;1.40;99.90;;;;;;5058181;28;20025;-88
2023/01/30 00:53:09;;;;;;;31.73;17.67;;;1.40;99.90;;;;;;5066205;28;21150;-89
2023/01/30 00:55:34;;;;;;;30.08;16.73;;;1.50;99.90;;;;;;5066677;28;20274;-88
2023/01/30 00:58:01;;;;;;;27.52;16.98;;;1.50;99.90;;;;;;5063253;28;20404;-88
2023/01/30 01:00:26;;;;;;;29.73;17.73;;;1.40;99.90;;;;;;5064571;28;20032;-87
2023/01/30 01:02:52;;;;;;;29.88;18.50;;;1.40;99.90;;;;;;5062923;28;20025;-87
2023/01/30 01:05:17;;;;;;;29.10;16.08;;;1.40;99.90;;;;;;5064121;28;20089;-88
2023/01/30 01:07:43;;;;;;;30.30;17.80;;;1.40;99.90;;;;;;5071726;28;20039;-89
2023/01/30 01:10:15;;;;;;;29.38;16.98;;;1.40;99.90;;;;;;5067111;28;20063;-87
2023/01/30 01:12:43;;;;;;;31.88;17.83;;;1.40;99.90;;;;;;5073730;28;20059;-87
2023/01/30 01:15:11;;;;;;;29.17;16.67;;;1.50;99.90;;;;;;5068105;28;20116;-87
2023/01/30 01:17:37;;;;;;;30.55;17.67;;;1.50;99.90;;;;;;5020340;28;20049;-89
2023/01/30 01:20:03;;;;;;;28.08;16.42;;;1.60;99.90;;;;;;5046638;28;20067;-90
2023/01/30 01:22:29;;;;;;;31.58;16.85;;;1.60;99.90;;;;;;5044389;28;20390;-89
2023/01/30 01:24:55;;;;;;;30.92;17.25;;;1.60;99.90;;;;;;5035606;28;20022;-88
2023/01/30 01:27:24;;;;;;;29.33;16.92;;;1.70;99.90;;;;;;5038401;28;20021;-88
2023/01/30 01:29:49;;;;;;;28.05;16.65;;;1.70;99.90;;;;;;5049411;28;20112;-91
2023/01/30 01:32:15;;;;;;;33.78;15.73;;;1.70;99.90;;;;;;5043106;28;20487;-92
2023/01/30 01:34:41;;;;;;;34.45;17.05;;;1.70;99.90;;;;;;5042549;28;20030;-88
2023/01/30 01:37:06;;;;;;;31.13;17.15;;;1.80;99.90;;;;;;5041138;28;20060;-89
2023/01/30 01:42:23;;;;;;;27.42;15.77;;;1.80;99.90;;;;;;5010660;28;20045;-88
2023/01/30 01:45:07;;;;;;;32.15;17.42;;;1.90;99.90;;;;;;5035949;28;20040;-88
2023/01/30 01:47:34;;;;;;;33.20;17.25;;;2.00;99.90;;;;;;5039960;28;20029;-87
2023/01/30 01:50:04;;;;;;;34.55;18.77;;;2.00;99.90;;;;;;5037987;28;20060;-88
2023/01/30 01:52:30;;;;;;;26.13;15.98;;;2.00;99.90;;;;;;5045458;28;20111;-87
2023/01/30 01:55:00;;;;;;;28.30;16.90;;;2.10;99.90;;;;;;5041206;28;20452;-89
2023/01/30 01:57:32;;;;;;;28.40;15.93;;;2.10;99.90;;;;;;5049140;28;20045;-88
2023/01/30 02:00:11;;;;;;;26.65;16.25;;;2.10;99.90;;;;;;5038514;28;20088;-87
2023/01/30 02:02:40;;;;;;;29.73;15.70;;;2.20;99.90;;;;;;5045721;28;20029;-89
2023/01/30 02:05:10;;;;;;;29.45;16.70;;;2.20;99.90;;;;;;5037537;28;20079;-87
2023/01/30 02:08:07;;;;;;;29.88;15.93;;;2.20;99.90;;;;;;5037834;28;20037;-88
2023/01/30 02:10:42;;;;;;;27.42;15.60;;;2.30;99.90;;;;;;5040037;28;20022;-88
2023/01/30 02:13:08;;;;;;;27.48;15.73;;;2.30;99.90;;;;;;5032265;28;20447;-88
2023/01/30 02:15:34;;;;;;;29.38;15.02;;;2.30;99.90;;;;;;5049232;28;20112;-91
2023/01/30 02:18:00;;;;;;;24.85;15.68;;;2.30;99.90;;;;;;5064921;28;20071;-88
2023/01/30 02:20:55;;;;;;;27.23;16.25;;;2.40;99.90;;;;;;5064992;28;20079;-88
2023/01/30 02:23:53;;;;;;;33.00;17.45;;;2.50;99.90;;;;;;5060907;28;20431;-89
2023/01/30 02:26:29;;;;;;;30.98;16.48;;;2.50;99.90;;;;;;5056788;28;20047;-89
2023/01/30 02:29:13;;;;;;;28.75;16.20;;;2.40;99.90;;;;;;5062014;28;20029;-87
2023/01/30 02:31:56;;;;;;;29.88;16.75;;;2.40;99.90;;;;;;5057717;28;20047;-88
2023/01/30 02:34:50;;;;;;;34.35;16.73;;;2.30;99.90;;;;;;5077067;28;20089;-87
2023/01/30 02:37:48;;;;;;;27.65;14.65;;;2.30;99.90;;;;;;5070837;28;20493;-86
2023/01/30 02:40:36;;;;;;;28.98;17.30;;;2.30;99.90;;;;;;5063502;28;20113;-86
2023/01/30 02:43:27;;;;;;;30.95;17.27;;;2.20;99.90;;;;;;5058401;28;20119;-86
2023/01/30 02:46:24;;;;;;;27.58;17.30;;;2.20;99.90;;;;;;5057215;28;20063;-89
2023/01/30 02:49:15;;;;;;;32.92;17.25;;;2.30;99.90;;;;;;5042037;28;20025;-89
2023/01/30 02:51:42;;;;;;;27.85;15.85;;;2.30;99.90;;;;;;5054511;28;20037;-92
2023/01/30 02:54:11;;;;;;;30.00;16.00;;;2.30;99.90;;;;;;5062651;28;20434;-86
2023/01/30 02:56:53;;;;;;;32.15;18.23;;;2.40;99.90;;;;;;5057034;28;20033;-88
2023/01/30 02:59:33;;;;;;;21.40;12.18;;;2.40;99.90;;;;;;5053478;28;20021;-90
2023/01/30 03:02:19;;;;;;;30.92;17.83;;;2.50;99.90;;;;;;5058572;28;20481;-89
2023/01/30 03:04:57;;;;;;;34.08;16.92;;;2.50;99.90;;;;;;5053740;28;20040;-91
2023/01/30 03:07:38;;;;;;;31.70;18.45;;;2.50;99.90;;;;;;5062620;28;20026;-88
2023/01/30 03:10:07;;;;;;;24.50;13.25;;;2.50;99.90;;;;;;5057527;28;20036;-88
2023/01/30 03:12:58;;;;;;;31.35;15.68;;;2.50;99.90;;;;;;5063400;28;20036;-89
2023/01/30 03:15:41;;;;;;;31.25;16.15;;;2.60;99.90;;;;;;5060736;28;20024;-90
2023/01/30 03:18:08;;;;;;;26.08;14.00;;;2.70;99.90;;;;;;5071063;28;20535;-89
2023/01/30 03:20:38;;;;;;;26.92;15.07;;;2.60;99.90;;;;;;5060003;28;20043;-91
2023/01/30 03:23:04;;;;;;;27.95;15.60;;;2.60;99.90;;;;;;5063127;28;20028;-88
2023/01/30 03:25:31;;;;;;;26.27;14.25;;;2.60;99.90;;;;;;5066599;28;20033;-89
2023/01/30 03:27:57;;;;;;;22.80;13.25;;;2.60;99.90;;;;;;5056943;28;20035;-90
2023/01/30 03:30:25;;;;;;;20.45;12.20;;;2.60;99.90;;;;;;5068362;28;20504;-88
2023/01/30 03:32:52;;;;;;;24.50;14.38;;;2.60;99.90;;;;;;5066982;28;20029;-89
2023/01/30 03:35:17;;;;;;;19.70;11.52;;;2.50;99.90;;;;;;5068015;28;20028;-88
2023/01/30 03:37:44;;;;;;;24.02;13.02;;;2.50;99.90;;;;;;5061197;28;20043;-87
2023/01/30 03:40:12;;;;;;;21.25;12.40;;;2.50;99.90;;;;;;5065210;28;20029;-91
2023/01/30 03:42:37;;;;;;;20.33;12.10;;;2.40;99.90;;;;;;5062159;28;20032;-90
2023/01/30 03:45:03;;;;;;;18.08;11.32;;;2.30;99.90;;;;;;5058853;28;20416;-86
2023/01/30 03:47:29;;;;;;;19.55;11.07;;;2.30;99.90;;;;;;5059650;28;20390;-88
2023/01/30 03:49:54;;;;;;;22.48;12.07;;;2.30;99.90;;;;;;5056173;28;20426;-91
2023/01/30 03:52:20;;;;;;;18.52;11.30;;;2.30;99.90;;;;;;5067182;28;20024;-88
2023/01/30 03:54:45;;;;;;;18.90;11.13;;;2.30;99.90;;;;;;5065885;28;20488;-91
2023/01/30 03:57:14;;;;;;;17.90;10.88;;;2.30;99.90;;;;;;5060554;28;20049;-87
2023/01/30 03:59:40;;;;;;;22.73;13.20;;;2.30;99.90;;;;;;5056937;28;20052;-89
2023/01/30 04:02:05;;;;;;;19.52;11.68;;;2.30;99.90;;;;;;5063544;28;20020;-90
2023/01/30 04:04:31;;;;;;;21.85;12.45;;;2.30;99.90;;;;;;5064347;28;20031;-88
2023/01/30 04:06:56;;;;;;;24.33;12.32;;;2.30;99.90;;;;;;5064207;28;20111;-91
2023/01/30 04:09:23;;;;;;;25.45;13.63;;;2.30;99.90;;;;;;5057466;28;20021;-86
2023/01/30 04:11:48;;;;;;;25.52;13.68;;;2.30;99.90;;;;;;5054276;28;20056;-90
2023/01/30 04:14:14;;;;;;;24.10;14.38;;;2.20;99.90;;;;;;5073537;28;20122;-92
2023/01/30 04:16:39;;;;;;;31.42;15.48;;;2.20;99.90;;;;;;5068028;28;20097;-90
2023/01/30 04:19:05;;;;;;;29.85;16.58;;;2.20;99.90;;;;;;5064951;28;20021;-92
2023/01/30 04:21:30;;;;;;;31.25;17.27;;;2.20;99.90;;;;;;5065300;28;20029;-89
2023/01/30 04:23:59;;;;;;;29.77;17.00;;;2.20;99.90;;;;;;5066498;28;20049;-88
2023/01/30 04:26:25;;;;;;;30.95;16.88;;;2.10;99.90;;;;;;5067831;28;20082;-89
2023/01/30 04:28:51;;;;;;;33.25;16.02;;;2.20;99.90;;;;;;5073655;28;20028;-88
2023/01/30 04:31:17;;;;;;;33.15;16.02;;;2.20;99.90;;;;;;5061338;28;20120;-86
2023/01/30 04:33:43;;;;;;;35.40;18.38;;;2.10;99.90;;;;;;5051095;28;20024;-88
2023/01/30 04:36:10;;;;;;;26.52;14.93;;;2.10;99.90;;;;;;5062856;28;20029;-93
2023/01/30 04:38:35;;;;;;;25.70;15.23;;;2.10;99.90;;;;;;5064092;28;20028;-90
2023/01/30 04:41:02;;;;;;;25.42;14.07;;;2.20;99.90;;;;;;5059890;28;20432;-90
2023/01/30 04:43:28;;;;;;;25.33;13.50;;;2.20;99.90;;;;;;5070651;28;20036;-93
2023/01/30 04:45:54;;;;;;;22.23;13.10;;;2.20;99.90;;;;;;5072176;28;20111;-90
2023/01/30 04:48:22;;;;;;;21.33;12.30;;;2.30;99.90;;;;;;5071547;28;20033;-89
2023/01/30 04:50:49;;;;;;;16.40;8.90;;;2.30;99.90;;;;;;5065763;28;20080;-90
2023/01/30 04:53:16;;;;;;;20.17;9.75;;;2.40;99.90;;;;;;5070043;28;20076;-91
2023/01/30 04:55:42;;;;;;;17.90;9.48;;;2.40;99.90;;;;;;5062950;28;20035;-87
2023/01/30 04:58:08;;;;;;;17.23;9.38;;;2.50;99.90;;;;;;5061885;28;20063;-91
2023/01/30 05:00:34;;;;;;;17.98;9.35;;;2.40;99.90;;;;;;5074418;28;20052;-91
2023/01/30 05:02:59;;;;;;;14.95;10.02;;;2.40;99.90;;;;;;5057037;28;20032;-93
2023/01/30 05:05:26;;;;;;;19.23;10.20;;;2.40;99.90;;;;;;5046454;28;20527;-91
2023/01/30 05:07:53;;;;;;;15.25;8.80;;;2.40;99.90;;;;;;5051313;28;20068;-91
2023/01/30 05:10:18;;;;;;;18.27;9.98;;;2.40;99.90;;;;;;5063135;28;20059;-92
2023/01/30 05:12:44;;;;;;;12.77;7.93;;;2.40;99.90;;;;;;5061110;28;20048;-89
2023/01/30 05:15:11;;;;;;;16.17;7.75;;;2.40;99.90;;;;;;5065189;28;20024;-87
2023/01/30 05:17:36;;;;;;;13.40;7.90;;;2.50;99.90;;;;;;5057297;28;20278;-91
2023/01/30 05:20:02;;;;;;;13.57;7.90;;;2.50;99.90;;;;;;5049550;28;20032;-89
2023/01/30 05:22:28;;;;;;;13.02;6.90;;;2.60;99.90;;;;;;5065110;28;20080;-90
2023/01/30 05:24:54;;;;;;;10.43;6.30;;;2.60;99.90;;;;;;5057625;28;20040;-91
2023/01/30 05:27:19;;;;;;;11.70;7.10;;;2.70;99.90;;;;;;5057664;28;20234;-88
2023/01/30 05:29:45;;;;;;;13.50;7.28;;;2.70;99.90;;;;;;5053980;28;20029;-89
2023/01/30 05:32:15;;;;;;;11.32;6.60;;;2.70;99.90;;;;;;5058338;28;20420;-90
2023/01/30 05:34:44;;;;;;;9.57;5.88;;;2.80;99.90;;;;;;5073368;28;20489;-84
2023/01/30 05:37:11;;;;;;;10.38;5.82;;;2.80;99.90;;;;;;5059031;28;20097;-89
2023/01/30 05:39:36;;;;;;;10.40;6.47;;;2.80;99.90;;;;;;5053573;28;20151;-90
2023/01/30 05:42:02;;;;;;;7.55;4.88;;;2.80;99.90;;;;;;5057540;28;20572;-88
2023/01/30 05:44:28;;;;;;;8.38;5.45;;;2.80;99.90;;;;;;5062049;28;20032;-91
2023/01/30 05:46:54;;;;;;;7.60;4.80;;;2.80;99.90;;;;;;5055408;28;20488;-90
2023/01/30 05:49:31;;;;;;;8.68;5.03;;;2.80;99.90;;;;;;5073936;28;20034;-87
2023/01/30 05:51:57;;;;;;;8.15;4.68;;;2.80;99.90;;;;;;5048412;28;20029;-87
2023/01/30 05:54:22;;;;;;;7.68;4.53;;;2.80;99.90;;;;;;5045365;28;20036;-86
2023/01/30 05:56:49;;;;;;;8.65;4.95;;;2.90;99.90;;;;;;5065632;28;20044;-87
2023/01/30 05:59:17;;;;;;;5.78;3.15;;;2.90;99.90;;;;;;5071360;28;20173;-87
2023/01/30 06:01:43;;;;;;;4.03;3.20;;;2.90;99.90;;;;;;5063147;28;20024;-88
2023/01/30 06:04:08;;;;;;;6.00;4.18;;;2.90;99.90;;;;;;5045048;28;20035;-87
2023/01/30 06:06:34;;;;;;;4.28;3.35;;;3.00;99.90;;;;;;5057204;28;20028;-88
2023/01/30 06:08:59;;;;;;;3.78;2.97;;;3.00;99.90;;;;;;5079043;28;20114;-86
2023/01/30 06:11:25;;;;;;;3.63;2.78;;;3.10;99.90;;;;;;5071226;28;20019;-87
2023/01/30 06:13:51;;;;;;;3.63;3.13;;;3.10;99.90;;;;;;5070696;28;20516;-87
2023/01/30 06:16:17;;;;;;;4.15;3.03;;;3.10;99.90;;;;;;5067282;28;20037;-87
2023/01/30 06:18:45;;;;;;;4.40;3.25;;;3.00;99.90;;;;;;5061967;28;20373;-88
2023/01/30 06:21:12;;;;;;;3.67;2.90;;;3.00;99.90;;;;;;5069996;28;20047;-86
2023/01/30 06:23:37;;;;;;;2.95;2.65;;;3.00;99.90;;;;;;5073887;28;20020;-88
2023/01/30 06:26:04;;;;;;;3.85;3.03;;;3.00;99.90;;;;;;5063537;28;20120;-89
2023/01/30 06:28:29;;;;;;;3.85;2.90;;;3.10;99.90;;;;;;5069503;28;20063;-85
2023/01/30 06:30:55;;;;;;;4.53;3.05;;;3.00;99.90;;;;;;5066183;28;20033;-87
2023/01/30 06:33:22;;;;;;;3.33;2.55;;;3.10;99.90;;;;;;5076192;28;20032;-85
2023/01/30 06:35:49;;;;;;;2.55;1.90;;;3.00;99.90;;;;;;5057322;28;20029;-88
2023/01/30 06:38:16;;;;;;;2.63;2.42;;;3.00;99.90;;;;;;5069708;28;20089;-87
2023/01/30 06:40:45;;;;;;;2.25;2.00;;;2.90;99.90;;;;;;5068325;28;20585;-90
2023/01/30 06:43:11;;;;;;;3.25;2.42;;;2.90;99.90;;;;;;5070383;28;20024;-85
2023/01/30 06:45:37;;;;;;;2.67;2.03;;;2.90;99.90;;;;;;5066987;28;20100;-89
2023/01/30 06:48:03;;;;;;;2.30;2.00;;;2.90;99.90;;;;;;5059463;28;20477;-86
2023/01/30 06:50:29;;;;;;;1.95;1.75;;;2.90;99.90;;;;;;5051296;28;20115;-87
2023/01/30 06:52:57;;;;;;;3.72;2.42;;;2.90;99.90;;;;;;5063687;28;20027;-89
2023/01/30 06:55:25;;;;;;;2.20;2.00;;;2.90;99.90;;;;;;5080547;28;20480;-86
2023/01/30 06:58:01;;;;;;;2.28;2.08;;;2.90;99.90;;;;;;5067056;28;20050;-88
2023/01/30 07:00:27;;;;;;;2.20;2.00;;;3.00;99.90;;;;;;5053696;28;20033;-86
2023/01/30 07:02:52;;;;;;;4.65;2.85;;;3.00;99.90;;;;;;5081852;28;20032;-85
2023/01/30 07:05:18;;;;;;;3.25;2.42;;;3.00;99.90;;;;;;5071578;28;20051;-88
2023/01/30 07:07:43;;;;;;;3.13;2.50;;;3.00;99.90;;;;;;5072898;28;20028;-86
2023/01/30 07:10:11;;;;;;;4.60;2.65;;;3.10;99.90;;;;;;5070628;28;20035;-87
2023/01/30 07:12:36;;;;;;;2.95;2.10;;;2.90;99.90;;;;;;5075288;28;20032;-87
2023/01/30 07:15:03;;;;;;;4.93;3.33;;;3.00;99.90;;;;;;5068618;28;22989;-87
2023/01/30 07:17:29;;;;;;;2.90;2.33;;;3.00;99.90;;;;;;5082748;28;20052;-88
2023/01/30 07:19:54;;;;;;;2.40;2.17;;;3.00;99.90;;;;;;5070764;28;20020;-85
2023/01/30 07:22:20;;;;;;;2.80;2.05;;;3.00;99.90;;;;;;5079773;28;20024;-88
2023/01/30 07:24:45;;;;;;;2.40;2.20;;;3.00;99.90;;;;;;5072554;28;20426;-88
2023/01/30 07:27:12;;;;;;;2.17;1.98;;;3.10;99.90;;;;;;5071822;28;20021;-86
2023/01/30 07:29:38;;;;;;;5.55;2.20;;;3.00;99.90;;;;;;5067519;28;20528;-86
2023/01/30 07:32:05;;;;;;;2.85;2.13;;;3.00;99.90;;;;;;5063260;28;20027;-86
2023/01/30 07:34:32;;;;;;;2.05;1.92;;;3.10;99.90;;;;;;5073882;28;20165;-88
2023/01/30 07:36:58;;;;;;;3.55;3.00;;;3.00;99.90;;;;;;5064942;28;20040;-86
2023/01/30 07:39:24;;;;;;;2.67;2.47;;;3.10;99.90;;;;;;5078324;28;20020;-87
2023/01/30 07:41:49;;;;;;;1.95;1.80;;;3.10;99.90;;;;;;5068022;28;20461;-86
2023/01/30 07:44:15;;;;;;;1.80;1.70;;;3.10;99.90;;;;;;5064649;28;20025;-87
2023/01/30 07:46:40;;;;;;;1.95;1.75;;;3.10;99.90;;;;;;5064775;28;20032;-88
2023/01/30 07:49:09;;;;;;;5.22;3.50;;;3.10;99.90;;;;;;5066230;28;20111;-86
2023/01/30 07:51:35;;;;;;;2.78;1.98;;;3.10;99.90;;;;;;5067581;28;20086;-89
2023/01/30 07:54:02;;;;;;;2.03;1.83;;;3.10;99.90;;;;;;5070792;28;20127;-91
2023/01/30 07:56:28;;;;;;;2.97;1.90;;;3.20;99.90;;;;;;5077603;28;20043;-88
2023/01/30 07:58:54;;;;;;;9.57;4.80;;;3.20;99.90;;;;;;5075612;28;20024;-85
2023/01/30 08:01:21;;;;;;;1.70;1.60;;;3.20;99.90;;;;;;5072237;28;20166;-88
2023/01/30 08:03:48;;;;;;;1.70;1.30;;;3.20;99.90;;;;;;5080593;28;20114;-87
2023/01/30 08:06:14;;;;;;;2.30;2.10;;;3.20;99.90;;;;;;5050945;28;20021;-86
2023/01/30 08:08:39;;;;;;;1.70;1.48;;;3.30;99.90;;;;;;5082174;28;20032;-88
2023/01/30 08:11:05;;;;;;;1.98;1.83;;;3.30;99.90;;;;;;5074222;28;20032;-86
2023/01/30 08:13:32;;;;;;;3.00;1.90;;;3.40;99.90;;;;;;5074352;28;20027;-88
2023/01/30 08:16:01;;;;;;;1.90;1.60;;;3.40;99.90;;;;;;5065613;28;20139;-86
2023/01/30 08:18:28;;;;;;;1.63;1.52;;;3.40;99.90;;;;;;5067024;28;20584;-89
2023/01/30 08:20:57;;;;;;;4.30;1.85;;;3.50;99.90;;;;;;5078827;28;20385;-89
2023/01/30 08:23:23;;;;;;;7.45;3.03;;;3.50;99.90;;;;;;5078174;28;20408;-89
2023/01/30 08:25:49;;;;;;;1.77;1.52;;;3.50;99.90;;;;;;5076247;28;20033;-89
2023/01/30 08:28:14;;;;;;;6.70;2.78;;;3.60;99.90;;;;;;5063526;28;20553;-87
2023/01/30 08:30:40;;;;;;;3.45;2.22;;;3.60;99.90;;;;;;5071290;28;20439;-89
2023/01/30 08:33:06;;;;;;;4.68;2.40;;;3.70;99.90;;;;;;5075859;28;20029;-88
2023/01/30 08:35:32;;;;;;;4.28;1.58;;;3.70;99.90;;;;;;5068914;28;20050;-87
2023/01/30 08:37:58;;;;;;;2.20;1.30;;;3.80;99.90;;;;;;5056466;28;20445;-88
2023/01/30 08:40:23;;;;;;;1.77;1.65;;;3.80;99.90;;;;;;5070593;28;20031;-90
2023/01/30 08:42:49;;;;;;;4.20;1.90;;;3.70;99.90;;;;;;5080497;28;20033;-88
2023/01/30 08:45:14;;;;;;;4.28;2.13;;;3.80;99.90;;;;;;5072267;28;20037;-88
2023/01/30 08:47:40;;;;;;;2.95;1.70;;;3.90;99.90;;;;;;5053249;28;20101;-89
2023/01/30 08:50:07;;;;;;;1.98;1.60;;;3.90;99.90;;;;;;5069892;28;20116;-89
2023/01/30 08:52:33;;;;;;;3.92;1.85;;;4.00;99.90;;;;;;5074299;28;20340;-87
2023/01/30 08:54:58;;;;;;;6.43;2.20;;;4.00;99.90;;;;;;5069880;28;20036;-88
2023/01/30 08:57:24;;;;;;;5.50;2.20;;;4.00;99.90;;;;;;5082067;28;20036;-87
2023/01/30 08:59:52;;;;;;;4.07;2.28;;;4.10;99.90;;;;;;5075499;28;20085;-88
2023/01/30 09:02:18;;;;;;;3.03;2.70;;;4.10;99.90;;;;;;5068311;28;20113;-89
2023/01/30 09:04:43;;;;;;;4.00;2.38;;;4.20;99.90;;;;;;5064818;28;20481;-88
2023/01/30 09:07:09;;;;;;;7.93;2.90;;;4.30;99.90;;;;;;5080363;28;20373;-88
2023/01/30 09:09:35;;;;;;;9.27;2.83;;;4.40;99.90;;;;;;5074257;28;20385;-87
2023/01/30 09:12:00;;;;;;;8.00;2.15;;;4.40;99.90;;;;;;5053737;28;20472;-90
2023/01/30 09:14:26;;;;;;;8.90;2.67;;;4.50;99.90;;;;;;5076628;28;20017;-89
2023/01/30 09:16:54;;;;;;;7.28;2.97;;;4.50;99.90;;;;;;5059653;28;20048;-88
2023/01/30 09:19:27;;;;;;;15.35;3.42;;;4.50;99.90;;;;;;5061233;28;20024;-88
2023/01/30 09:21:53;;;;;;;38.88;16.27;;;4.50;99.90;;;;;;5061522;28;20031;-90
2023/01/30 09:24:20;;;;;;;6.88;3.00;;;4.60;99.90;;;;;;5056864;28;20023;-92
2023/01/30 09:26:46;;;;;;;10.27;3.53;;;4.50;99.90;;;;;;5061828;28;20040;-90
2023/01/30 09:29:13;;;;;;;13.63;6.53;;;4.50;99.90;;;;;;5071601;28;20036;-90
2023/01/30 09:31:39;;;;;;;13.48;4.57;;;4.50;99.90;;;;;;5079449;28;20420;-89
2023/01/30 09:34:05;;;;;;;8.55;3.28;;;4.50;99.90;;;;;;5071348;28;20054;-89
2023/01/30 09:36:31;;;;;;;6.53;3.45;;;4.60;99.90;;;;;;5070857;28;20619;-94
2023/01/30 09:38:57;;;;;;;8.60;3.95;;;4.60;99.90;;;;;;5072045;28;20048;-89
2023/01/30 09:41:53;;;;;;;10.13;3.70;;;4.70;99.90;;;;;;5079409;28;20426;-87
2023/01/30 09:44:36;;;;;;;23.60;3.70;;;4.70;99.90;;;;;;5070989;28;20028;-91
2023/01/30 09:47:10;;;;;;;12.77;3.25;;;4.90;99.90;;;;;;5081000;28;20048;-89
2023/01/30 09:49:57;;;;;;;21.98;5.35;;;4.90;99.90;;;;;;5076524;28;20028;-89
2023/01/30 09:52:29;;;;;;;20.05;7.25;;;5.10;99.90;;;;;;5065246;28;20030;-89
2023/01/30 09:55:02;;;;;;;13.40;3.83;;;5.10;99.90;;;;;;5078852;28;20024;-89
2023/01/30 09:57:28;;;;;;;21.70;5.63;;;5.10;99.90;;;;;;5075137;28;20039;-89
2023/01/30 10:00:23;;;;;;;11.18;3.03;;;5.10;99.90;;;;;;5077375;28;20103;-88
2023/01/30 10:02:58;;;;;;;15.20;2.95;;;5.10;99.90;;;;;;5077779;28;20073;-90
2023/01/30 10:05:37;;;;;;;12.95;2.83;;;5.00;99.90;;;;;;5078848;28;20473;-87
2023/01/30 10:08:12;;;;;;;7.00;2.53;;;5.10;99.90;;;;;;5082121;28;20106;-89
2023/01/30 10:10:50;;;;;;;14.88;3.45;;;5.10;99.90;;;;;;5077213;28;20569;-89
2023/01/30 10:14:05;;;;;;;13.43;2.75;;;5.20;99.90;;;;;;5071076;28;20455;-92
2023/01/30 10:16:36;;;;;;;12.73;3.05;;;5.10;99.90;;;;;;5064095;28;20507;-90
2023/01/30 10:19:11;;;;;;;18.58;3.53;;;5.10;99.90;;;;;;5055296;28;20029;-90
2023/01/30 10:21:36;;;;;;;17.10;3.80;;;5.00;99.90;;;;;;5037793;28;20517;-93
2023/01/30 10:24:27;;;;;;;13.38;2.92;;;5.00;99.90;;;;;;5054810;28;20043;-91
2023/01/30 10:26:54;;;;;;;17.08;3.15;;;4.90;99.90;;;;;;5063022;28;20017;-90
2023/01/30 10:29:35;;;;;;;11.45;2.65;;;4.90;99.90;;;;;;5062339;28;20028;-91
2023/01/30 10:32:11;;;;;;;23.70;3.20;;;4.90;99.90;;;;;;5041467;28;20024;-89
2023/01/30 10:34:38;;;;;;;;;;;5.00;99.90;;;;;;5054171;28;20029;-90
2023/01/30 10:37:13;;;;;;;8.57;3.30;;;5.10;99.90;;;;;;5037563;28;20375;-91
2023/01/30 10:39:57;;;;;;;17.02;2.92;;;5.20;99.90;;;;;;5042651;28;20026;-89
2023/01/30 10:42:53;;;;;;;16.52;3.95;;;5.30;99.90;;;;;;5054946;28;20033;-91
2023/01/30 10:45:24;;;;;;;21.30;2.90;;;5.30;99.90;;;;;;5040677;28;20045;-90
2023/01/30 10:48:29;;;;;;;10.75;3.13;;;5.30;99.90;;;;;;5046429;28;20037;-89
2023/01/30 10:51:02;;;;;;;17.02;3.42;;;5.40;99.90;;;;;;5068473;28;20059;-91
2023/01/30 10:53:38;;;;;;;24.20;3.67;;;5.40;99.90;;;;;;5056356;28;20091;-89
2023/01/30 10:56:18;;;;;;;28.83;3.80;;;5.40;99.90;;;;;;5059188;28;20024;-90
2023/01/30 10:58:55;;;;;;;21.70;3.05;;;5.20;99.90;;;;;;5044133;28;20025;-90
2023/01/30 11:01:30;;;;;;;9.90;2.55;;;4.90;99.90;;;;;;5055612;28;20025;-89
2023/01/30 11:04:04;;;;;;;13.27;2.35;;;4.40;99.90;;;;;;5051980;28;20440;-90
2023/01/30 11:07:16;;;;;;;16.30;2.58;;;4.10;99.90;;;;;;5162714;27;20118;-90
2023/01/30 11:09:46;;;;;;;15.40;2.30;;;3.90;99.90;;;;;;5142271;27;20122;-92
2023/01/30 11:12:15;;;;;;;8.80;2.00;;;3.80;99.90;;;;;;5136370;27;20043;-89
2023/01/30 11:14:52;;;;;;;10.70;2.67;;;3.80;99.90;;;;;;5134490;27;20077;-88
2023/01/30 11:17:20;;;;;;;14.35;2.50;;;3.80;99.90;;;;;;5141519;27;20026;-87
2023/01/30 11:19:55;;;;;;;13.18;2.95;;;3.80;99.90;;;;;;5142066;27;20035;-87
2023/01/30 11:22:24;;;;;;;20.75;3.60;;;3.90;99.90;;;;;;5142909;27;20518;-89
2023/01/30 11:25:10;;;;;;;26.13;3.30;;;4.00;99.90;;;;;;5140629;27;20026;-88
2023/01/30 11:27:35;;;;;;;26.85;3.85;;;4.10;99.90;;;;;;5135858;27;20421;-89
2023/01/30 11:30:15;;;;;;;20.70;3.95;;;4.30;99.90;;;;;;5139137;27;20031;-87
2023/01/30 11:32:43;;;;;;;17.65;2.83;;;4.50;99.90;;;;;;5137705;27;20031;-90
2023/01/30 11:35:09;;;;;;;23.27;2.90;;;4.70;99.90;;;;;;5139280;27;20042;-87
2023/01/30 11:37:40;;;;;;;11.30;2.67;;;4.80;99.90;;;;;;5143607;27;20026;-89
2023/01/30 11:40:24;;;;;;;19.48;3.17;;;4.90;99.90;;;;;;5140704;27;20039;-89
2023/01/30 11:43:04;;;;;;;21.02;3.30;;;5.00;99.90;;;;;;5146585;27;20102;-90
2023/01/30 11:45:39;;;;;;;14.02;2.42;;;5.10;99.90;;;;;;5135833;27;20035;-90
2023/01/30 11:48:14;;;;;;;16.27;3.00;;;5.20;99.90;;;;;;5141110;27;20107;-88
2023/01/30 11:50:42;;;;;;;14.02;3.10;;;5.20;99.90;;;;;;5141071;27;20058;-88
2023/01/30 11:53:22;;;;;;;19.77;3.92;;;5.30;99.90;;;;;;5140839;27;20018;-85
2023/01/30 11:55:48;;;;;;;19.30;3.28;;;5.30;99.90;;;;;;5136143;27;20102;-88
2023/01/30 11:58:15;;;;;;;19.48;3.50;;;5.20;99.90;;;;;;5120486;27;20169;-88
2023/01/30 12:00:45;;;;;;;24.23;3.97;;;5.20;99.90;;;;;;5145029;27;20054;-87
2023/01/30 12:03:15;;;;;;;18.95;3.50;;;5.20;99.90;;;;;;5145848;27;20386;-88
2023/01/30 12:05:43;;;;;;;18.02;3.28;;;5.20;99.90;;;;;;5138021;27;20624;-88
2023/01/30 12:08:20;;;;;;;26.55;3.38;;;5.20;99.90;;;;;;5142680;27;20487;-88
2023/01/30 12:10:56;;;;;;;17.13;3.35;;;5.30;99.90;;;;;;5133092;27;20475;-88
2023/01/30 12:13:31;;;;;;;19.20;3.92;;;5.40;99.90;;;;;;5143261;27;20031;-87
2023/01/30 12:16:16;;;;;;;22.17;4.53;;;5.30;99.90;;;;;;5144628;27;20479;-89
2023/01/30 12:19:03;;;;;;;12.60;2.73;;;5.40;99.90;;;;;;5124344;27;20499;-89
2023/01/30 12:21:53;;;;;;;20.17;3.97;;;5.40;99.90;;;;;;5121776;27;20972;-86
2023/01/30 12:24:34;;;;;;;17.38;2.92;;;5.50;99.90;;;;;;5122118;27;20551;-88
2023/01/30 12:27:27;;;;;;;11.93;2.65;;;5.50;99.90;;;;;;5120378;27;20672;-88
2023/01/30 12:29:58;;;;;;;23.17;3.83;;;5.50;99.90;;;;;;5117696;27;20567;-86
2023/01/30 12:32:27;;;;;;;23.00;3.45;;;5.50;99.90;;;;;;5121820;27;20391;-87
2023/01/30 12:34:53;;;;;;;17.83;3.33;;;5.50;99.90;;;;;;5113164;27;20093;-87
2023/01/30 12:37:19;;;;;;;23.58;3.40;;;5.60;99.90;;;;;;5123025;27;20053;-89
2023/01/30 12:40:03;;;;;;;23.30;4.32;;;5.50;99.90;;;;;;5125118;27;20099;-89
2023/01/30 12:42:31;;;;;;;20.35;5.93;;;5.50;99.90;;;;;;5128058;27;20031;-90
2023/01/30 12:45:11;;;;;;;19.35;5.13;;;5.60;99.90;;;;;;5118323;27;20015;-85
2023/01/30 12:48:09;;;;;;;26.30;5.15;;;5.60;99.90;;;;;;5121590;27;20075;-88
2023/01/30 12:50:43;;;;;;;17.42;2.90;;;5.60;99.90;;;;;;5085604;27;20038;-88
2023/01/30 12:53:18;;;;;;;17.60;2.70;;;5.60;99.90;;;;;;5122984;27;20455;-89
2023/01/30 12:56:21;;;;;;;15.93;3.47;;;5.70;99.90;;;;;;5126834;27;20584;-86
2023/01/30 12:58:50;;;;;;;13.00;2.90;;;5.70;99.90;;;;;;5105742;27;20034;-88
2023/01/30 13:01:26;;;;;;;6.65;1.85;;;5.60;99.90;;;;;;5107541;27;20031;-89
2023/01/30 13:04:03;;;;;;;25.98;5.10;;;5.60;99.90;;;;;;5127423;27;20475;-88
2023/01/30 13:06:47;;;;;;;25.17;5.40;;;5.60;99.90;;;;;;5126560;27;20059;-87
2023/01/30 13:09:46;;;;;;;13.88;2.80;;;5.60;99.90;;;;;;5124261;27;20042;-88
2023/01/30 13:12:36;;;;;;;24.73;4.45;;;5.60;99.90;;;;;;5117225;27;20102;-87